Terminal Aerodrome Forecast
Issued by NWS

Home | Current Version | Previous Version | Text Only | Print | Product List | Glossary Off
Versions: 1 2 3 4 5 6 7 8 9 10 11 12 13 14 15 16 17 18 19 20 21 22 23 24 25 26

000
FTUS43 KLOT 250534
TAFGYY
TAF
KGYY 250534Z 2506/2606 21006KT P6SM SCT025 BKN200
     FM250700 32007KT P6SM SCT025 BKN200
     FM251500 36008KT P6SM FEW050 SCT250
     FM252100 02006KT P6SM SKC
     FM260100 VRB03KT P6SM SKC=

USA.gov is the U.S. government's official web portal to all federal, state and local government web resources and services.